Time;durP1;ratioP1;P1;durP2;ratioP2;P2;SDS_P1;SDS_P2;PMS_P1;PMS_P2;Temp;Humidity;BMP_temperature;BMP_pressure;BME280_temperature;BME280_humidity;BME280_pressure;Samples;Min_cycle;Max_cycle;Signal;HPM_P1;HPM_P2
2022/12/07 00:01:34;;;;;;;14.27;7.00;;;;;;;;;;5097065;28;20458;-72
2022/12/07 00:04:07;;;;;;;11.40;6.57;;;;;;;;;;5097501;28;20489;-73
2022/12/07 00:06:35;;;;;;;12.67;7.50;;;;;;;;;;5096658;28;20466;-72
2022/12/07 00:09:03;;;;;;;9.80;5.03;;;;;;;;;;5096761;28;20467;-72
2022/12/07 00:11:30;;;;;;;12.40;7.07;;;;;;;;;;5095986;28;20466;-73
2022/12/07 00:13:59;;;;;;;12.17;7.33;;;;;;;;;;5096654;28;20491;-73
2022/12/07 00:16:28;;;;;;;15.13;8.37;;;;;;;;;;5096403;28;20471;-72
2022/12/07 00:18:56;;;;;;;9.50;6.30;;;;;;;;;;5098246;28;20486;-72
2022/12/07 00:21:29;;;;;;;9.00;5.93;;;;;;;;;;5099989;28;20506;-72
2022/12/07 00:23:57;;;;;;;13.80;8.10;;;;;;;;;;5099718;28;20528;-72
2022/12/07 00:26:26;;;;;;;11.93;7.90;;;;;;;;;;5100407;28;20455;-72
2022/12/07 00:28:58;;;;;;;12.37;8.10;;;;;;;;;;5099604;28;20742;-72
2022/12/07 00:31:26;;;;;;;14.43;7.90;;;;;;;;;;5100748;28;20459;-72
2022/12/07 00:33:54;;;;;;;11.33;8.73;;;;;;;;;;5100483;28;20459;-72
2022/12/07 00:36:22;;;;;;;14.00;8.10;;;;;;;;;;5100563;28;20566;-72
2022/12/07 00:38:52;;;;;;;11.17;6.80;;;;;;;;;;5100123;28;20465;-73
2022/12/07 00:41:20;;;;;;;11.70;7.37;;;;;;;;;;5099847;28;20552;-73
2022/12/07 00:43:49;;;;;;;12.37;7.20;;;;;;;;;;5099501;28;20483;-72
2022/12/07 00:46:17;;;;;;;9.97;6.97;;;;;;;;;;5100256;28;20455;-73
2022/12/07 00:48:44;;;;;;;13.17;7.03;;;;;;;;;;5100670;28;20879;-73
2022/12/07 00:51:15;;;;;;;10.37;6.20;;;;;;;;;;5100373;27;20452;-73
2022/12/07 00:53:46;;;;;;;7.80;5.20;;;;;;;;;;5100022;28;20462;-72
2022/12/07 00:56:16;;;;;;;14.23;7.47;;;;;;;;;;5099556;28;20451;-72
2022/12/07 00:58:53;;;;;;;10.70;6.10;;;;;;;;;;5100263;28;20876;-72
2022/12/07 01:01:20;;;;;;;10.20;5.90;;;;;;;;;;5099690;28;20487;-72
2022/12/07 01:03:48;;;;;;;15.07;6.97;;;;;;;;;;5100073;28;20925;-72
2022/12/07 01:06:16;;;;;;;13.67;8.40;;;;;;;;;;5099872;28;20447;-72
2022/12/07 01:08:47;;;;;;;14.63;8.17;;;;;;;;;;5099736;28;20734;-72
2022/12/07 01:11:17;;;;;;;11.30;5.27;;;;;;;;;;5099576;28;20455;-72
2022/12/07 01:13:49;;;;;;;9.73;6.70;;;;;;;;;;5099993;28;20476;-72
2022/12/07 01:16:17;;;;;;;12.67;7.60;;;;;;;;;;5099227;28;20507;-72
2022/12/07 01:18:49;;;;;;;8.07;5.47;;;;;;;;;;5099350;28;20466;-72
2022/12/07 01:21:17;;;;;;;8.83;5.47;;;;;;;;;;5099260;28;20966;-72
2022/12/07 01:23:45;;;;;;;13.00;6.90;;;;;;;;;;5099196;28;20459;-72
2022/12/07 01:26:14;;;;;;;12.57;7.47;;;;;;;;;;5099678;28;20451;-72
2022/12/07 01:28:43;;;;;;;10.80;6.97;;;;;;;;;;5099072;28;20463;-72
2022/12/07 01:31:12;;;;;;;16.17;7.03;;;;;;;;;;5099133;28;20456;-72
2022/12/07 01:33:44;;;;;;;7.13;4.77;;;;;;;;;;5099680;28;20797;-72
2022/12/07 01:36:15;;;;;;;12.17;4.43;;;;;;;;;;5099511;28;20720;-72
2022/12/07 01:38:43;;;;;;;5.70;3.83;;;;;;;;;;5099281;28;20451;-72
2022/12/07 01:41:10;;;;;;;11.93;6.97;;;;;;;;;;5099130;28;20479;-72
2022/12/07 01:43:38;;;;;;;12.87;6.53;;;;;;;;;;5099382;28;20724;-71
2022/12/07 01:46:07;;;;;;;13.23;7.70;;;;;;;;;;5098778;28;20463;-72
2022/12/07 01:48:37;;;;;;;11.00;6.93;;;;;;;;;;5098709;28;20469;-73
2022/12/07 01:51:07;;;;;;;13.50;7.40;;;;;;;;;;5098442;28;20456;-72
2022/12/07 01:53:37;;;;;;;8.57;5.50;;;;;;;;;;5098750;28;20463;-72
2022/12/07 01:56:05;;;;;;;11.03;5.47;;;;;;;;;;5098762;28;20451;-72
2022/12/07 01:58:35;;;;;;;11.33;5.50;;;;;;;;;;5098727;28;20522;-72
2022/12/07 02:01:03;;;;;;;11.93;6.80;;;;;;;;;;5099181;28;20479;-72
2022/12/07 02:03:35;;;;;;;12.07;6.60;;;;;;;;;;5098833;28;20527;-72
2022/12/07 02:06:02;;;;;;;12.10;7.50;;;;;;;;;;5098587;28;20447;-72
2022/12/07 02:08:30;;;;;;;12.97;6.80;;;;;;;;;;5098358;28;20467;-72
2022/12/07 02:10:58;;;;;;;11.03;6.67;;;;;;;;;;5098207;28;20475;-72
2022/12/07 02:13:26;;;;;;;11.50;6.37;;;;;;;;;;5100694;28;20464;-72
2022/12/07 02:16:01;;;;;;;10.60;4.60;;;;;;;;;;5118649;28;20776;-72
2022/12/07 02:18:37;;;;;;;11.70;5.80;;;;;;;;;;5118335;27;20478;-72
2022/12/07 02:21:11;;;;;;;14.30;7.57;;;;;;;;;;5118270;27;20474;-72
2022/12/07 02:23:55;;;;;;;12.33;6.57;;;;;;;;;;5118614;27;20486;-71
2022/12/07 02:26:39;;;;;;;10.00;6.60;;;;;;;;;;5118311;27;20455;-71
2022/12/07 02:29:15;;;;;;;11.13;5.70;;;;;;;;;;5118305;27;20472;-71
2022/12/07 02:31:46;;;;;;;9.67;6.10;;;;;;;;;;5118895;27;20457;-71
2022/12/07 02:34:29;;;;;;;11.67;6.07;;;;;;;;;;5118561;27;20458;-72
2022/12/07 02:37:00;;;;;;;9.67;6.17;;;;;;;;;;5118307;28;20454;-72
2022/12/07 02:39:31;;;;;;;17.13;6.00;;;;;;;;;;5117835;27;20455;-72
2022/12/07 02:42:00;;;;;;;11.77;6.40;;;;;;;;;;5117869;28;20573;-72
2022/12/07 02:44:30;;;;;;;12.77;6.50;;;;;;;;;;5117717;27;20463;-72
2022/12/07 02:47:00;;;;;;;13.03;6.17;;;;;;;;;;5118484;27;20454;-72
2022/12/07 02:49:28;;;;;;;13.53;4.73;;;;;;;;;;5118223;27;20458;-72
2022/12/07 02:51:56;;;;;;;8.50;5.43;;;;;;;;;;5117698;27;20455;-72
2022/12/07 02:54:24;;;;;;;9.07;5.90;;;;;;;;;;5117780;27;20454;-73
2022/12/07 02:56:54;;;;;;;7.30;4.90;;;;;;;;;;5117999;28;20466;-73
2022/12/07 02:59:30;;;;;;;8.13;5.30;;;;;;;;;;5117877;28;20826;-72
2022/12/07 03:02:05;;;;;;;12.10;6.10;;;;;;;;;;5117543;28;20514;-73
2022/12/07 03:04:39;;;;;;;8.10;5.10;;;;;;;;;;5118540;28;20480;-72
2022/12/07 03:07:08;;;;;;;7.80;4.87;;;;;;;;;;5117784;27;20450;-72
2022/12/07 03:09:39;;;;;;;8.10;4.50;;;;;;;;;;5096793;28;21133;-72
2022/12/07 03:12:12;;;;;;;12.43;5.80;;;;;;;;;;5097599;28;20459;-72
2022/12/07 03:14:43;;;;;;;6.43;4.23;;;;;;;;;;5096851;28;20455;-72
2022/12/07 03:17:16;;;;;;;10.63;3.80;;;;;;;;;;5096919;28;20463;-71
2022/12/07 03:19:44;;;;;;;5.10;3.97;;;;;;;;;;5089950;28;20464;-71
2022/12/07 03:22:12;;;;;;;17.77;4.70;;;;;;;;;;5096633;28;20897;-72
2022/12/07 03:24:44;;;;;;;8.70;3.60;;;;;;;;;;5096824;28;20470;-73
2022/12/07 03:27:15;;;;;;;5.70;2.73;;;;;;;;;;5097404;28;20462;-72
2022/12/07 03:29:45;;;;;;;6.70;3.00;;;;;;;;;;5097099;28;20464;-72
2022/12/07 03:32:16;;;;;;;5.50;3.53;;;;;;;;;;5097288;28;20470;-73
2022/12/07 03:34:47;;;;;;;6.20;3.90;;;;;;;;;;5097058;28;20490;-72
2022/12/07 03:37:21;;;;;;;3.07;2.13;;;;;;;;;;5097260;28;20554;-73
2022/12/07 03:39:56;;;;;;;1.70;1.10;;;;;;;;;;5098073;28;20541;-72
2022/12/07 03:42:24;;;;;;;6.30;3.80;;;;;;;;;;5097666;28;20483;-72
2022/12/07 03:44:52;;;;;;;3.93;2.13;;;;;;;;;;5096924;28;20455;-72
2022/12/07 03:47:27;;;;;;;5.67;2.93;;;;;;;;;;5098191;28;20451;-72
2022/12/07 03:49:58;;;;;;;5.60;3.33;;;;;;;;;;5097240;28;20463;-72
2022/12/07 03:52:28;;;;;;;5.97;4.20;;;;;;;;;;5099359;28;20471;-72
2022/12/07 03:54:58;;;;;;;6.77;4.03;;;;;;;;;;5101186;28;20463;-72
2022/12/07 03:57:27;;;;;;;3.97;2.27;;;;;;;;;;5100839;28;20463;-72
2022/12/07 03:59:56;;;;;;;7.40;3.00;;;;;;;;;;5101412;28;21056;-72
2022/12/07 04:02:25;;;;;;;8.53;4.13;;;;;;;;;;5100671;28;20471;-72
2022/12/07 04:04:55;;;;;;;6.23;2.47;;;;;;;;;;5100651;28;20739;-72
2022/12/07 04:07:25;;;;;;;2.80;1.83;;;;;;;;;;5101089;28;20455;-72
2022/12/07 04:09:54;;;;;;;4.50;2.47;;;;;;;;;;5100431;28;20463;-72
2022/12/07 04:12:22;;;;;;;6.10;2.93;;;;;;;;;;5100788;28;20463;-72
2022/12/07 04:14:50;;;;;;;4.43;1.93;;;;;;;;;;5100561;28;20475;-73
2022/12/07 04:17:20;;;;;;;4.53;2.80;;;;;;;;;;5099935;28;21053;-72
2022/12/07 04:19:49;;;;;;;11.37;2.60;;;;;;;;;;5100722;28;20528;-73
2022/12/07 04:22:17;;;;;;;4.80;1.83;;;;;;;;;;5100344;28;20483;-72
2022/12/07 04:24:44;;;;;;;4.60;2.50;;;;;;;;;;5100460;28;20470;-73
2022/12/07 04:27:12;;;;;;;4.73;2.77;;;;;;;;;;5100389;28;20503;-72
2022/12/07 04:29:42;;;;;;;3.20;1.73;;;;;;;;;;5100195;28;20457;-72
2022/12/07 04:32:10;;;;;;;8.23;3.17;;;;;;;;;;5100050;28;20463;-72
2022/12/07 04:34:37;;;;;;;6.33;2.93;;;;;;;;;;5100254;28;20459;-72
2022/12/07 04:37:08;;;;;;;6.10;3.40;;;;;;;;;;5099833;28;20483;-73
2022/12/07 04:39:39;;;;;;;6.00;2.90;;;;;;;;;;5099926;28;20460;-73
2022/12/07 04:42:07;;;;;;;9.37;2.77;;;;;;;;;;5100169;28;20487;-72
2022/12/07 04:44:34;;;;;;;3.40;1.87;;;;;;;;;;5100403;28;20550;-76
2022/12/07 04:47:02;;;;;;;5.87;3.37;;;;;;;;;;5100341;28;20470;-72
2022/12/07 04:49:30;;;;;;;2.40;1.30;;;;;;;;;;5100197;28;20867;-73
2022/12/07 04:51:58;;;;;;;8.37;2.80;;;;;;;;;;5099696;28;20834;-73
2022/12/07 04:54:28;;;;;;;5.50;3.17;;;;;;;;;;5099498;28;20875;-73
2022/12/07 04:56:58;;;;;;;3.60;2.43;;;;;;;;;;5099298;28;20494;-73
2022/12/07 04:59:29;;;;;;;4.47;2.80;;;;;;;;;;5099968;28;20979;-72
2022/12/07 05:01:57;;;;;;;5.40;1.97;;;;;;;;;;5099397;28;20483;-73
2022/12/07 05:04:24;;;;;;;5.17;2.37;;;;;;;;;;5098774;28;20459;-73
2022/12/07 05:06:55;;;;;;;4.10;1.70;;;;;;;;;;5099310;28;20469;-73
2022/12/07 05:09:23;;;;;;;6.10;2.43;;;;;;;;;;5099644;28;20563;-73
2022/12/07 05:11:54;;;;;;;3.17;2.00;;;;;;;;;;5109954;28;20463;-74
2022/12/07 05:14:22;;;;;;;4.50;1.97;;;;;;;;;;5112806;28;20492;-72
2022/12/07 05:16:50;;;;;;;5.70;3.37;;;;;;;;;;5100519;28;20467;-73
2022/12/07 05:19:18;;;;;;;4.60;2.03;;;;;;;;;;5099737;28;20466;-73
2022/12/07 05:21:46;;;;;;;6.80;1.97;;;;;;;;;;5099089;28;20475;-73
2022/12/07 05:24:15;;;;;;;4.23;2.33;;;;;;;;;;5096814;28;20456;-75
2022/12/07 05:26:43;;;;;;;3.13;1.63;;;;;;;;;;5099144;28;20534;-72
2022/12/07 05:29:16;;;;;;;3.30;1.90;;;;;;;;;;5099121;28;20463;-73
2022/12/07 05:31:44;;;;;;;5.60;2.40;;;;;;;;;;5100144;28;20542;-73
2022/12/07 05:34:12;;;;;;;2.90;1.53;;;;;;;;;;5100258;28;20478;-73
2022/12/07 05:36:40;;;;;;;5.43;2.70;;;;;;;;;;5099031;28;20478;-73
2022/12/07 05:39:08;;;;;;;5.23;1.77;;;;;;;;;;5099022;28;20887;-73
2022/12/07 05:44:25;;;;;;;7.73;2.33;;;;;;;;;;5098299;28;20435;-73
2022/12/07 05:46:55;;;;;;;7.00;1.90;;;;;;;;;;5098585;28;20890;-73
2022/12/07 05:49:24;;;;;;;4.87;2.37;;;;;;;;;;5098954;28;20474;-73
2022/12/07 05:51:52;;;;;;;8.00;2.27;;;;;;;;;;5097597;28;21072;-73
2022/12/07 05:54:20;;;;;;;3.77;2.07;;;;;;;;;;5098059;28;20463;-73
2022/12/07 05:56:49;;;;;;;10.20;2.20;;;;;;;;;;5100512;28;20474;-75
2022/12/07 05:59:27;;;;;;;3.60;2.47;;;;;;;;;;5098246;28;20580;-73
2022/12/07 06:02:05;;;;;;;6.80;2.57;;;;;;;;;;5097336;28;20491;-74
2022/12/07 06:04:34;;;;;;;3.40;1.77;;;;;;;;;;5098328;28;20459;-74
2022/12/07 06:09:55;;;;;;;5.40;2.33;;;;;;;;;;5097283;28;20869;-73
2022/12/07 06:12:46;;;;;;;5.17;2.60;;;;;;;;;;5100514;28;20455;-75
2022/12/07 06:15:22;;;;;;;8.97;4.63;;;;;;;;;;5107108;28;20455;-74
2022/12/07 06:17:52;;;;;;;4.03;2.10;;;;;;;;;;5116974;27;20461;-74
2022/12/07 06:20:19;;;;;;;6.40;2.67;;;;;;;;;;5115517;27;20453;-75
2022/12/07 06:22:47;;;;;;;4.37;2.50;;;;;;;;;;5110147;27;20846;-74
2022/12/07 06:25:15;;;;;;;5.50;2.40;;;;;;;;;;5095210;28;20452;-73
2022/12/07 06:27:43;;;;;;;3.50;1.90;;;;;;;;;;5096567;28;20483;-74
2022/12/07 06:30:14;;;;;;;6.70;2.57;;;;;;;;;;5096279;27;20568;-73
2022/12/07 06:32:41;;;;;;;6.73;2.53;;;;;;;;;;5116572;27;20935;-73
2022/12/07 06:35:14;;;;;;;4.60;2.23;;;;;;;;;;5112528;27;20463;-73
2022/12/07 06:37:44;;;;;;;2.27;1.60;;;;;;;;;;5089214;28;20859;-73
2022/12/07 06:40:12;;;;;;;5.73;3.20;;;;;;;;;;5095020;28;20503;-73
2022/12/07 06:42:39;;;;;;;4.27;2.50;;;;;;;;;;5107201;27;20758;-73
2022/12/07 06:45:12;;;;;;;6.47;3.97;;;;;;;;;;5110981;27;20492;-73
2022/12/07 06:47:42;;;;;;;4.97;2.50;;;;;;;;;;5115647;27;20893;-73
2022/12/07 06:50:14;;;;;;;3.47;1.80;;;;;;;;;;5115869;27;20457;-73
2022/12/07 06:52:42;;;;;;;4.37;1.87;;;;;;;;;;5105350;28;20470;-72
2022/12/07 06:55:10;;;;;;;4.80;2.97;;;;;;;;;;5115837;27;21112;-72
2022/12/07 06:57:45;;;;;;;6.57;2.37;;;;;;;;;;5114510;28;20454;-73
2022/12/07 07:00:14;;;;;;;3.20;2.20;;;;;;;;;;5113555;27;20862;-72
2022/12/07 07:02:54;;;;;;;5.77;3.40;;;;;;;;;;5113590;27;20827;-73
2022/12/07 07:05:23;;;;;;;3.50;2.07;;;;;;;;;;5115656;27;20458;-72
2022/12/07 07:07:58;;;;;;;5.10;2.60;;;;;;;;;;5115364;27;20648;-72
2022/12/07 07:10:45;;;;;;;6.07;2.30;;;;;;;;;;5114778;27;20461;-72
2022/12/07 07:13:31;;;;;;;;;;;;;;;;;;;;;
2022/12/07 07:16:05;;;;;;;6.50;2.10;;;;;;;;;;5096722;28;20483;-73
2022/12/07 07:18:48;;;;;;;3.70;2.40;;;;;;;;;;5122172;27;20934;-71
2022/12/07 07:21:30;;;;;;;7.50;2.10;;;;;;;;;;5135156;27;20465;-76
2022/12/07 07:24:00;;;;;;;3.77;1.97;;;;;;;;;;5135410;27;20454;-73
2022/12/07 07:26:41;;;;;;;4.13;2.23;;;;;;;;;;5115906;27;20638;-73
2022/12/07 07:29:17;;;;;;;9.63;2.23;;;;;;;;;;5099264;28;20470;-72
2022/12/07 07:32:00;;;;;;;4.00;1.50;;;;;;;;;;5099182;28;20805;-72
2022/12/07 07:34:28;;;;;;;2.40;1.43;;;;;;;;;;5108255;28;20569;-73
2022/12/07 07:37:07;;;;;;;4.17;1.77;;;;;;;;;;5108347;28;20463;-72
2022/12/07 07:42:20;;;;;;;3.03;1.43;;;;;;;;;;5095074;28;21098;-72
2022/12/07 07:44:52;;;;;;;3.40;1.30;;;;;;;;;;5097670;28;20455;-72
2022/12/07 07:47:34;;;;;;;3.83;1.97;;;;;;;;;;5115043;28;20443;-72
2022/12/07 07:50:15;;;;;;;5.20;3.07;;;;;;;;;;5117080;28;20474;-72
2022/12/07 07:53:10;;;;;;;9.70;2.00;;;;;;;;;;5105090;28;20843;-73
2022/12/07 07:55:38;;;;;;;6.27;2.43;;;;;;;;;;5110729;28;20458;-73
2022/12/07 07:58:09;;;;;;;3.40;2.30;;;;;;;;;;5115376;28;20473;-72
2022/12/07 08:00:37;;;;;;;3.70;1.87;;;;;;;;;;5108009;28;20565;-73
2022/12/07 08:03:04;;;;;;;4.80;1.83;;;;;;;;;;5117807;28;20906;-70
2022/12/07 08:05:33;;;;;;;4.73;2.00;;;;;;;;;;5116291;28;20466;-72
2022/12/07 08:08:02;;;;;;;3.53;1.90;;;;;;;;;;5116787;28;20473;-73
2022/12/07 08:10:31;;;;;;;7.17;5.00;;;;;;;;;;5116221;28;20766;-73
2022/12/07 08:13:13;;;;;;;3.20;1.90;;;;;;;;;;5117205;28;20496;-72
2022/12/07 08:15:42;;;;;;;3.77;1.63;;;;;;;;;;5113271;28;20473;-72
2022/12/07 08:18:13;;;;;;;3.83;1.97;;;;;;;;;;5117785;27;20469;-72
2022/12/07 08:20:48;;;;;;;3.07;1.80;;;;;;;;;;5115461;27;20467;-73
2022/12/07 08:23:31;;;;;;;3.03;2.10;;;;;;;;;;5117112;28;20543;-72
2022/12/07 08:26:02;;;;;;;11.13;3.40;;;;;;;;;;5117240;28;20454;-72
2022/12/07 08:28:36;;;;;;;3.70;2.60;;;;;;;;;;5117842;28;20549;-73
2022/12/07 08:31:08;;;;;;;4.20;2.43;;;;;;;;;;5115066;28;20466;-72
2022/12/07 08:33:36;;;;;;;6.50;3.60;;;;;;;;;;5102215;28;20475;-73
2022/12/07 08:36:09;;;;;;;6.43;2.13;;;;;;;;;;5114641;28;20466;-73
2022/12/07 08:38:41;;;;;;;2.33;1.43;;;;;;;;;;5114534;28;20451;-72
2022/12/07 08:41:10;;;;;;;3.20;1.60;;;;;;;;;;5120018;27;20545;-72
2022/12/07 08:43:43;;;;;;;3.23;2.00;;;;;;;;;;5118582;27;20512;-73
2022/12/07 08:46:12;;;;;;;2.10;1.30;;;;;;;;;;5121866;27;20462;-71
2022/12/07 08:48:47;;;;;;;3.50;1.57;;;;;;;;;;5116606;27;20802;-73
2022/12/07 08:54:33;;;;;;;4.33;1.97;;;;;;;;;;5102761;28;20462;-74
2022/12/07 09:00:37;;;;;;;2.70;1.53;;;;;;;;;;5114288;28;20499;-73
2022/12/07 09:03:11;;;;;;;3.53;2.27;;;;;;;;;;5111685;27;20494;-74
2022/12/07 09:05:53;;;;;;;6.53;2.10;;;;;;;;;;5098623;28;20450;-74
2022/12/07 09:08:22;;;;;;;2.57;1.80;;;;;;;;;;5103171;28;20458;-72
2022/12/07 09:10:49;;;;;;;3.27;1.83;;;;;;;;;;5119129;27;20473;-73
2022/12/07 09:13:17;;;;;;;5.57;2.50;;;;;;;;;;5111888;28;20466;-72
2022/12/07 09:15:49;;;;;;;5.47;3.23;;;;;;;;;;5101498;28;20474;-74
2022/12/07 09:18:20;;;;;;;2.23;1.60;;;;;;;;;;5115255;28;20455;-73
2022/12/07 09:20:48;;;;;;;4.87;1.80;;;;;;;;;;5115637;27;21084;-74
2022/12/07 09:23:16;;;;;;;2.30;1.20;;;;;;;;;;5117230;27;20581;-73
2022/12/07 09:25:44;;;;;;;4.93;1.70;;;;;;;;;;5117433;27;20468;-73
2022/12/07 09:28:20;;;;;;;9.93;2.27;;;;;;;;;;5113424;27;20470;-74
2022/12/07 09:30:54;;;;;;;7.70;2.10;;;;;;;;;;5118883;27;20469;-73
2022/12/07 09:33:24;;;;;;;6.63;2.23;;;;;;;;;;5120286;27;20461;-73
2022/12/07 09:35:53;;;;;;;4.07;1.77;;;;;;;;;;5118279;27;20920;-73
2022/12/07 09:38:21;;;;;;;6.13;1.93;;;;;;;;;;5108353;28;20467;-73
2022/12/07 09:41:01;;;;;;;4.10;2.40;;;;;;;;;;5114376;27;20498;-74
2022/12/07 09:43:30;;;;;;;2.00;1.27;;;;;;;;;;5097121;28;20494;-74
2022/12/07 09:46:04;;;;;;;4.77;2.33;;;;;;;;;;5098789;28;20452;-74
2022/12/07 09:48:33;;;;;;;5.40;1.57;;;;;;;;;;5097832;28;20452;-73
2022/12/07 09:51:19;;;;;;;4.70;2.80;;;;;;;;;;5104848;28;20490;-72
2022/12/07 09:53:47;;;;;;;4.03;2.37;;;;;;;;;;5110929;27;20538;-72
2022/12/07 09:56:22;;;;;;;9.37;3.10;;;;;;;;;;5110074;27;20566;-72
2022/12/07 09:58:57;;;;;;;13.23;5.93;;;;;;;;;;5098116;28;20455;-74
2022/12/07 10:01:49;;;;;;;3.67;2.30;;;;;;;;;;5097307;28;20494;-73
2022/12/07 10:07:23;;;;;;;7.50;2.93;;;;;;;;;;5095774;28;20476;-73
2022/12/07 10:09:53;;;;;;;3.17;1.93;;;;;;;;;;5116016;27;20485;-73
2022/12/07 10:12:21;;;;;;;2.43;1.57;;;;;;;;;;5117135;27;20726;-72
2022/12/07 10:14:56;;;;;;;3.40;1.77;;;;;;;;;;5116003;27;20475;-75
2022/12/07 10:17:40;;;;;;;3.10;1.70;;;;;;;;;;5109285;27;20471;-72
2022/12/07 10:20:27;;;;;;;7.97;2.07;;;;;;;;;;5095151;28;20470;-72
2022/12/07 10:22:59;;;;;;;6.20;2.20;;;;;;;;;;5103475;27;20475;-72
2022/12/07 10:25:32;;;;;;;4.70;2.03;;;;;;;;;;5116902;27;20470;-72
2022/12/07 10:28:17;;;;;;;2.90;1.80;;;;;;;;;;5117054;27;20454;-72
2022/12/07 10:31:11;;;;;;;2.87;2.10;;;;;;;;;;5116523;28;20934;-72
2022/12/07 10:33:50;;;;;;;3.63;2.20;;;;;;;;;;5107530;28;20574;-73
2022/12/07 10:36:29;;;;;;;7.83;2.93;;;;;;;;;;5111431;27;20467;-73
2022/12/07 10:39:03;;;;;;;8.00;1.60;;;;;;;;;;5113262;28;20477;-72
2022/12/07 10:41:30;;;;;;;2.07;1.20;;;;;;;;;;5115343;27;20458;-73
2022/12/07 10:43:59;;;;;;;2.10;0.90;;;;;;;;;;5116324;28;20470;-74
2022/12/07 10:46:45;;;;;;;7.50;1.93;;;;;;;;;;5120384;28;20538;-72
2022/12/07 10:49:50;;;;;;;3.87;2.33;;;;;;;;;;5112854;28;20465;-73
2022/12/07 10:52:47;;;;;;;2.80;1.50;;;;;;;;;;5111564;27;20447;-72
2022/12/07 10:55:29;;;;;;;4.80;1.30;;;;;;;;;;5116053;27;20571;-73
2022/12/07 10:58:23;;;;;;;5.53;1.20;;;;;;;;;;5110678;27;20448;-72
2022/12/07 11:07:14;;;;;;;;;;;;;;;;;;;;;
2022/12/07 11:12:59;;;;;;;5.63;2.47;;;;;;;;;;5106430;28;20466;-74
2022/12/07 11:15:40;;;;;;;10.17;2.43;;;;;;;;;;5113929;27;21076;-71
2022/12/07 11:18:27;;;;;;;1.90;0.93;;;;;;;;;;5113420;27;20459;-72
2022/12/07 11:21:01;;;;;;;3.20;1.33;;;;;;;;;;5104413;28;20477;-71
2022/12/07 11:23:34;;;;;;;7.10;1.50;;;;;;;;;;5125501;27;20477;-72
2022/12/07 11:26:10;;;;;;;4.93;1.97;;;;;;;;;;5135870;27;20910;-72
2022/12/07 11:28:59;;;;;;;10.50;3.60;;;;;;;;;;5135661;27;20789;-72
2022/12/07 11:32:06;;;;;;;4.10;1.83;;;;;;;;;;5135759;27;20835;-74
2022/12/07 11:35:12;;;;;;;3.27;1.50;;;;;;;;;;5117791;28;20467;-72
2022/12/07 11:37:47;;;;;;;2.40;1.50;;;;;;;;;;5116139;28;21092;-71
2022/12/07 11:40:19;;;;;;;5.40;2.70;;;;;;;;;;5117334;27;20462;-72
2022/12/07 11:43:03;;;;;;;4.07;1.63;;;;;;;;;;5116837;28;20465;-71
2022/12/07 11:45:52;;;;;;;4.17;1.53;;;;;;;;;;5118177;28;20469;-73
2022/12/07 11:48:36;;;;;;;4.00;1.40;;;;;;;;;;5115571;28;20473;-73
2022/12/07 11:51:34;;;;;;;3.53;1.30;;;;;;;;;;5109521;28;20462;-72
2022/12/07 11:54:11;;;;;;;4.90;1.97;;;;;;;;;;5099167;28;20781;-72
2022/12/07 11:57:03;;;;;;;3.33;1.50;;;;;;;;;;5101488;28;20495;-72
2022/12/07 11:59:43;;;;;;;5.10;2.40;;;;;;;;;;5111050;28;20466;-73
2022/12/07 12:05:25;;;;;;;4.07;1.00;;;;;;;;;;5105005;28;20467;-73
2022/12/07 12:08:07;;;;;;;3.67;1.70;;;;;;;;;;5114499;28;20454;-72
2022/12/07 12:16:45;;;;;;;8.00;1.93;;;;;;;;;;5115969;28;21090;-74
2022/12/07 12:19:32;;;;;;;3.23;1.47;;;;;;;;;;5117442;27;20465;-73
2022/12/07 12:22:19;;;;;;;3.80;1.40;;;;;;;;;;5120417;27;20454;-73
2022/12/07 12:25:08;;;;;;;2.90;1.17;;;;;;;;;;5119979;27;20536;-73
2022/12/07 12:30:52;;;;;;;1.83;1.03;;;;;;;;;;5099813;28;20557;-73
2022/12/07 12:33:40;;;;;;;3.53;0.67;;;;;;;;;;5114509;27;20945;-73
2022/12/07 12:36:26;;;;;;;8.73;1.73;;;;;;;;;;5089927;28;20459;-72
2022/12/07 12:39:18;;;;;;;3.87;1.57;;;;;;;;;;5114419;27;20561;-73
2022/12/07 12:42:14;;;;;;;3.40;1.27;;;;;;;;;;5098958;28;20454;-73
2022/12/07 12:45:14;;;;;;;5.50;1.63;;;;;;;;;;5105270;27;20902;-71
2022/12/07 12:48:03;;;;;;;5.30;1.60;;;;;;;;;;5095480;28;20462;-73
2022/12/07 12:50:37;;;;;;;9.33;2.17;;;;;;;;;;5103430;28;20450;-73
2022/12/07 12:53:25;;;;;;;2.80;0.90;;;;;;;;;;5109224;27;20455;-73
2022/12/07 12:56:43;;;;;;;4.83;1.83;;;;;;;;;;5109655;27;20466;-72
2022/12/07 13:05:39;;;;;;;1.70;1.07;;;;;;;;;;5096099;27;20478;-73
2022/12/07 13:08:29;;;;;;;8.17;2.40;;;;;;;;;;5105825;28;20450;-72
2022/12/07 13:11:22;;;;;;;4.23;2.10;;;;;;;;;;5108136;27;20486;-72
2022/12/07 13:32:52;;;;;;;3.73;1.60;;;;;;;;;;5016696;28;20458;-72
2022/12/07 13:41:21;;;;;;;4.10;1.90;;;;;;;;;;5106928;27;20466;-72
2022/12/07 13:43:57;;;;;;;4.67;2.00;;;;;;;;;;5102805;27;20482;-71
2022/12/07 13:49:41;;;;;;;3.03;1.30;;;;;;;;;;5101012;28;20465;-72
2022/12/07 13:52:23;;;;;;;2.80;1.33;;;;;;;;;;5109119;28;20947;-72
2022/12/07 13:55:00;;;;;;;5.30;1.93;;;;;;;;;;5102547;28;20544;-72
2022/12/07 14:00:33;;;;;;;3.60;2.20;;;;;;;;;;5084389;27;21093;-72
2022/12/07 14:03:24;;;;;;;2.17;1.43;;;;;;;;;;5105037;27;20786;-72
2022/12/07 14:06:29;;;;;;;;;;;;;;;;;;;;;
2022/12/07 14:09:29;;;;;;;2.57;1.43;;;;;;;;;;5107107;28;20477;-73
2022/12/07 14:12:22;;;;;;;7.63;2.17;;;;;;;;;;5099126;27;21097;-73
2022/12/07 14:15:10;;;;;;;5.07;1.63;;;;;;;;;;5092505;28;20458;-71
2022/12/07 14:18:03;;;;;;;2.73;1.67;;;;;;;;;;5098456;27;21047;-71
2022/12/07 14:20:54;;;;;;;6.60;2.67;;;;;;;;;;5107592;28;20504;-72
2022/12/07 14:23:46;;;;;;;1.70;0.97;;;;;;;;;;5104653;28;20455;-72
2022/12/07 14:26:26;;;;;;;6.20;1.27;;;;;;;;;;5116120;28;20480;-73
2022/12/07 14:29:13;;;;;;;2.90;2.03;;;;;;;;;;5116928;27;20763;-73
2022/12/07 14:34:38;;;;;;;13.77;1.43;;;;;;;;;;5103362;28;20470;-72
2022/12/07 14:37:16;;;;;;;2.57;0.90;;;;;;;;;;5116259;27;20539;-71
2022/12/07 14:42:55;;;;;;;13.93;2.13;;;;;;;;;;5106213;27;20473;-72
2022/12/07 14:45:30;;;;;;;3.87;1.93;;;;;;;;;;5115467;27;20474;-71
2022/12/07 14:48:19;;;;;;;5.10;2.03;;;;;;;;;;5116238;27;20454;-72
2022/12/07 14:51:07;;;;;;;6.90;3.57;;;;;;;;;;5116072;27;20473;-72
2022/12/07 14:53:42;;;;;;;4.93;1.90;;;;;;;;;;5115536;28;21177;-72
2022/12/07 14:56:12;;;;;;;2.50;1.57;;;;;;;;;;5116524;27;20734;-72
2022/12/07 14:58:44;;;;;;;3.00;1.57;;;;;;;;;;5113666;27;20885;-72
2022/12/07 15:05:10;;;;;;;3.93;1.43;;;;;;;;;;5064960;28;20565;-71
2022/12/07 15:07:57;;;;;;;3.50;0.97;;;;;;;;;;5116257;27;20887;-72
2022/12/07 15:10:42;;;;;;;5.10;2.23;;;;;;;;;;5107802;27;20470;-71
2022/12/07 15:16:15;;;;;;;5.07;2.03;;;;;;;;;;5104420;27;20494;-71
2022/12/07 15:24:31;;;;;;;7.00;2.00;;;;;;;;;;5097302;28;21151;-71
2022/12/07 15:27:05;;;;;;;11.33;5.50;;;;;;;;;;5109196;28;20778;-71
2022/12/07 15:35:07;;;;;;;3.80;1.93;;;;;;;;;;5097442;28;20463;-72
2022/12/07 15:37:40;;;;;;;6.33;2.07;;;;;;;;;;5098870;28;20619;-72
2022/12/07 15:40:17;;;;;;;6.67;2.30;;;;;;;;;;5102663;28;20454;-71
2022/12/07 15:42:49;;;;;;;3.20;1.90;;;;;;;;;;5097258;28;20615;-71
2022/12/07 15:45:27;;;;;;;7.03;2.70;;;;;;;;;;5102033;28;20479;-71
2022/12/07 15:48:04;;;;;;;7.13;2.20;;;;;;;;;;5104548;27;20459;-73
2022/12/07 15:50:48;;;;;;;5.60;1.73;;;;;;;;;;5099613;28;20557;-72
2022/12/07 15:53:28;;;;;;;5.73;3.13;;;;;;;;;;5100792;28;20496;-72
2022/12/07 15:58:43;;;;;;;9.90;2.17;;;;;;;;;;5093676;28;20584;-72
2022/12/07 16:01:19;;;;;;;2.53;1.80;;;;;;;;;;5100683;28;20471;-71
2022/12/07 16:03:54;;;;;;;7.30;2.50;;;;;;;;;;5109718;28;20478;-73
2022/12/07 16:06:35;;;;;;;8.47;3.67;;;;;;;;;;5113472;28;20718;-71
2022/12/07 16:09:28;;;;;;;4.13;2.60;;;;;;;;;;5106786;28;20526;-72
2022/12/07 16:14:52;;;;;;;10.00;4.13;;;;;;;;;;5108461;28;20474;-72
2022/12/07 16:17:33;;;;;;;9.63;2.50;;;;;;;;;;5113190;28;20458;-71
2022/12/07 16:20:22;;;;;;;5.00;3.50;;;;;;;;;;5108712;28;20854;-72
2022/12/07 16:23:04;;;;;;;3.70;2.73;;;;;;;;;;5110729;28;20481;-72
2022/12/07 16:25:59;;;;;;;11.23;4.30;;;;;;;;;;5114036;28;20493;-72
2022/12/07 16:34:10;;;;;;;11.00;5.53;;;;;;;;;;5116670;28;20515;-72
2022/12/07 16:36:40;;;;;;;13.17;6.40;;;;;;;;;;5112974;28;20446;-72
2022/12/07 16:39:18;;;;;;;5.63;3.37;;;;;;;;;;5114478;28;20474;-72
2022/12/07 16:42:03;;;;;;;9.83;4.83;;;;;;;;;;5115093;28;20463;-72
2022/12/07 16:51:05;;;;;;;6.80;3.90;;;;;;;;;;5092514;28;20516;-74
2022/12/07 16:53:45;;;;;;;8.17;3.57;;;;;;;;;;5106791;28;20505;-72
2022/12/07 16:56:22;;;;;;;6.83;3.40;;;;;;;;;;5111935;28;20466;-74
2022/12/07 16:58:59;;;;;;;6.97;3.50;;;;;;;;;;5116131;28;20463;-73
2022/12/07 17:07:21;;;;;;;4.23;2.90;;;;;;;;;;5113389;27;20487;-72
2022/12/07 17:10:00;;;;;;;8.53;3.83;;;;;;;;;;5117165;27;20818;-73
2022/12/07 17:12:35;;;;;;;6.13;4.20;;;;;;;;;;5119369;27;20912;-72
2022/12/07 17:15:23;;;;;;;8.63;4.47;;;;;;;;;;5118385;27;20538;-72
2022/12/07 17:17:59;;;;;;;7.63;4.20;;;;;;;;;;5118448;27;20446;-72
2022/12/07 17:23:31;;;;;;;9.77;5.73;;;;;;;;;;5118237;27;20450;-72
2022/12/07 17:26:28;;;;;;;7.43;5.27;;;;;;;;;;5127420;27;20485;-74
2022/12/07 17:28:57;;;;;;;8.00;5.20;;;;;;;;;;5132539;27;20490;-73
2022/12/07 17:34:52;;;;;;;11.30;5.90;;;;;;;;;;5119448;27;20787;-71
2022/12/07 17:37:20;;;;;;;9.93;6.20;;;;;;;;;;5116493;27;21027;-71
2022/12/07 17:39:56;;;;;;;10.63;5.43;;;;;;;;;;5119348;27;20445;-73